createdAt,value
2022-08-08T00:00:54.518Z,66.71
2022-08-08T00:01:08.157Z,66.45
2022-08-08T00:02:43.421Z,66.80
2022-08-08T00:03:50.102Z,66.97
2022-08-08T00:04:59.998Z,66.76
2022-08-08T00:06:09.620Z,66.82
2022-08-08T00:07:17.910Z,67.40
2022-08-08T00:08:28.580Z,67.13
2022-08-08T00:09:40.830Z,67.03
2022-08-08T00:10:51.810Z,66.93
2022-08-08T00:12:08.009Z,66.83
2022-08-08T00:14:15.016Z,67.38
2022-08-08T00:14:57.135Z,67.10
2022-08-08T00:16:09.165Z,66.99
2022-08-08T00:17:23.239Z,66.93
2022-08-08T00:18:33.389Z,67.34
2022-08-08T00:19:46.678Z,67.10
2022-08-08T00:20:58.270Z,66.93
2022-08-08T00:22:04.948Z,67.09
2022-08-08T00:23:18.616Z,66.96
2022-08-08T00:24:29.977Z,67.29
2022-08-08T00:25:46.867Z,67.55
2022-08-08T00:26:58.138Z,67.21
2022-08-08T00:28:02.450Z,67.72
2022-08-08T00:29:10.948Z,67.82
2022-08-08T00:30:15.701Z,67.66
2022-08-08T00:32:20.975Z,67.66
2022-08-08T00:32:52.352Z,68.03
2022-08-08T00:34:20.778Z,67.83
2022-08-08T00:35:34.298Z,67.84
2022-08-08T00:36:43.029Z,67.65
2022-08-08T00:38:31.852Z,67.79
2022-08-08T00:41:11.653Z,67.95
2022-08-08T00:41:55.608Z,67.72
2022-08-08T00:43:45.949Z,67.78
2022-08-08T00:45:21.294Z,68.01
2022-08-08T00:47:04.524Z,67.78
2022-08-08T00:49:03.366Z,68.20
2022-08-08T00:50:59.962Z,68.21
2022-08-08T00:52:48.369Z,68.59
2022-08-08T00:54:15.533Z,68.36
2022-08-08T00:55:53.700Z,68.71
2022-08-08T00:57:34.397Z,68.52
2022-08-08T00:59:43.914Z,68.33
2022-08-08T01:00:52.873Z,68.73
2022-08-08T01:03:59.822Z,68.50
2022-08-08T01:04:02.673Z,68.85
2022-08-08T01:05:59.277Z,68.61
2022-08-08T01:07:55.268Z,68.80
2022-08-08T01:09:42.092Z,68.79
2022-08-08T01:11:24.368Z,68.88
2022-08-08T01:13:06.369Z,68.41
2022-08-08T01:14:54.254Z,69.24
2022-08-08T01:16:19.938Z,68.66
2022-08-08T01:18:50.580Z,68.98
2022-08-08T01:20:03.429Z,68.43
2022-08-08T01:22:10.326Z,68.56
2022-08-08T01:24:13.560Z,68.58
2022-08-08T01:25:42.972Z,68.59
2022-08-08T01:27:44.345Z,68.45
2022-08-08T01:29:35.595Z,68.52
2022-08-08T01:32:13.741Z,69.08
2022-08-08T01:34:00.553Z,68.74
2022-08-08T01:35:49.704Z,68.49
2022-08-08T01:37:17.441Z,68.40
2022-08-08T01:38:59.389Z,68.54
2022-08-08T01:40:23.814Z,69.31
2022-08-08T01:41:43.672Z,68.58
2022-08-08T01:42:51.929Z,69.07
2022-08-08T01:44:02.190Z,69.28
2022-08-08T01:45:23.551Z,69.38
2022-08-08T01:46:52.142Z,68.97
2022-08-08T01:48:30.778Z,69.07
2022-08-08T01:49:47.810Z,69.10
2022-08-08T01:51:30.584Z,69.11
2022-08-08T01:53:28.818Z,69.42
2022-08-08T01:55:45.332Z,69.48
2022-08-08T01:56:28.908Z,68.89
2022-08-08T01:57:25.789Z,69.12
2022-08-08T01:58:59.623Z,69.41
2022-08-08T02:00:19.620Z,69.40
2022-08-08T02:02:00.347Z,69.31
2022-08-08T02:03:55.476Z,68.94
2022-08-08T02:04:58.445Z,69.33
2022-08-08T02:06:09.018Z,69.13
2022-08-08T02:07:42.078Z,68.99
2022-08-08T02:08:58.358Z,69.38
2022-08-08T02:10:29.516Z,68.97
2022-08-08T02:11:59.342Z,69.10
2022-08-08T02:13:54.790Z,68.81
2022-08-08T02:14:58.794Z,68.92
2022-08-08T02:16:28.319Z,68.65
2022-08-08T02:17:43.250Z,69.06
2022-08-08T02:18:58.779Z,69.07
2022-08-08T02:20:16.301Z,68.66
2022-08-08T02:21:56.828Z,69.01
2022-08-08T02:23:18.395Z,68.98
2022-08-08T02:24:26.789Z,68.36
2022-08-08T02:25:46.856Z,68.84
2022-08-08T02:26:58.152Z,68.61
2022-08-08T02:28:07.158Z,68.71
2022-08-08T02:29:31.415Z,68.56
2022-08-08T02:30:57.914Z,68.47
2022-08-08T02:32:15.727Z,68.58
2022-08-08T02:34:08.701Z,68.65
2022-08-08T02:36:04.145Z,68.29
2022-08-08T02:37:10.153Z,68.55
2022-08-08T02:38:56.279Z,68.49
2022-08-08T02:40:12.060Z,68.27
2022-08-08T02:41:58.880Z,68.67
2022-08-08T02:44:39.101Z,68.30
2022-08-08T02:45:24.125Z,68.22
2022-08-08T02:46:47.043Z,68.59
2022-08-08T02:48:27.314Z,68.35
2022-08-08T02:50:17.850Z,68.26
2022-08-08T02:51:56.655Z,68.16
2022-08-08T02:53:24.110Z,68.26
2022-08-08T02:54:42.377Z,68.38
2022-08-08T02:56:17.565Z,68.54
2022-08-08T02:57:51.368Z,68.36
2022-08-08T02:59:57.744Z,68.01
2022-08-08T03:01:47.291Z,68.47
2022-08-08T03:05:00.228Z,67.88
2022-08-08T03:05:25.564Z,68.11
2022-08-08T03:07:07.229Z,68.09
2022-08-08T03:08:52.480Z,67.99
2022-08-08T03:10:44.407Z,67.95
2022-08-08T03:12:36.902Z,67.98
2022-08-08T03:15:57.768Z,67.86
2022-08-08T03:16:05.692Z,67.59
2022-08-08T03:17:25.552Z,67.58
2022-08-08T03:18:52.213Z,67.83
2022-08-08T03:20:13.729Z,67.75
2022-08-08T03:21:19.818Z,67.83
2022-08-08T03:22:38.909Z,67.89
2022-08-08T03:23:57.305Z,67.88
2022-08-08T03:25:09.215Z,67.56
2022-08-08T03:26:42.315Z,67.76
2022-08-08T03:27:57.037Z,67.68
2022-08-08T03:29:16.695Z,67.73
2022-08-08T03:30:26.549Z,67.95
2022-08-08T03:32:06.465Z,67.57
2022-08-08T03:33:56.789Z,68.02
2022-08-08T03:34:48.513Z,67.84
2022-08-08T03:35:52.793Z,67.73
2022-08-08T03:36:58.801Z,68.19
2022-08-08T03:38:56.911Z,67.89
2022-08-08T03:39:29.732Z,67.93
2022-08-08T03:40:34.351Z,67.77
2022-08-08T03:42:26.598Z,67.82
2022-08-08T03:43:16.876Z,68.02
2022-08-08T03:44:32.828Z,68.14
2022-08-08T03:46:06.289Z,68.11
2022-08-08T03:47:14.297Z,68.34
2022-08-08T03:49:09.547Z,68.39
2022-08-08T03:49:57.432Z,68.30
2022-08-08T03:51:09.186Z,68.08
2022-08-08T03:52:18.398Z,68.38
2022-08-08T03:53:42.721Z,68.58
2022-08-08T03:55:01.966Z,68.39
2022-08-08T03:56:31.337Z,68.15
2022-08-08T03:58:30.485Z,68.61
2022-08-08T03:59:02.669Z,68.04
2022-08-08T04:00:11.439Z,68.38
2022-08-08T04:01:26.198Z,68.43
2022-08-08T04:02:56.998Z,68.36
2022-08-08T04:04:02.104Z,68.31
2022-08-08T04:05:19.352Z,68.34
2022-08-08T04:06:29.579Z,68.56
2022-08-08T04:07:39.315Z,68.62
2022-08-08T04:08:46.091Z,68.70
2022-08-08T04:10:02.955Z,68.50
2022-08-08T04:11:17.377Z,68.50
2022-08-08T04:12:23.268Z,68.40
2022-08-08T04:13:28.309Z,68.66
2022-08-08T04:14:38.122Z,68.38
2022-08-08T04:16:03.408Z,68.72
2022-08-08T04:17:15.444Z,68.68
2022-08-08T04:18:27.200Z,68.49
2022-08-08T04:19:30.439Z,68.69
2022-08-08T04:20:41.187Z,68.60
2022-08-08T04:21:45.898Z,68.65
2022-08-08T04:22:51.389Z,68.77
2022-08-08T04:24:05.679Z,68.62
2022-08-08T04:25:18.082Z,68.98
2022-08-08T04:26:21.597Z,68.81
2022-08-08T04:28:01.949Z,68.82
2022-08-08T04:28:54.745Z,68.69
2022-08-08T04:30:17.300Z,68.58
2022-08-08T04:31:59.437Z,68.60
2022-08-08T04:32:50.337Z,68.75
2022-08-08T04:33:57.287Z,69.00
2022-08-08T04:35:01.532Z,68.64
2022-08-08T04:36:09.849Z,68.72
2022-08-08T04:37:15.077Z,68.63
2022-08-08T04:38:21.638Z,68.75
2022-08-08T04:40:04.621Z,68.43
2022-08-08T04:40:55.074Z,68.55
2022-08-08T04:42:00.411Z,68.50
2022-08-08T04:43:05.879Z,68.39
2022-08-08T04:44:17.800Z,68.63
2022-08-08T04:45:24.125Z,68.33
2022-08-08T04:46:31.329Z,68.22
2022-08-08T04:47:43.248Z,68.28
2022-08-08T04:48:52.809Z,68.06
2022-08-08T04:50:01.304Z,68.04
2022-08-08T04:51:17.463Z,68.22
2022-08-08T04:52:33.934Z,67.88
2022-08-08T04:54:36.023Z,67.86
2022-08-08T04:55:07.607Z,67.96
2022-08-08T04:56:13.197Z,67.71
2022-08-08T04:57:18.047Z,67.75
2022-08-08T04:58:22.421Z,67.53
2022-08-08T04:59:29.988Z,67.39
2022-08-08T05:00:34.988Z,67.52
2022-08-08T05:01:48.651Z,67.39
2022-08-08T05:02:55.540Z,67.08
2022-08-08T05:04:08.098Z,67.11
2022-08-08T05:05:20.387Z,67.06
2022-08-08T05:06:45.553Z,67.14
2022-08-08T05:07:49.141Z,67.00
2022-08-08T05:08:55.750Z,66.96
2022-08-08T05:10:01.740Z,66.71
2022-08-08T05:11:23.881Z,66.33
2022-08-08T05:12:36.744Z,66.09
2022-08-08T05:13:54.979Z,66.16
2022-08-08T05:15:05.208Z,65.64
2022-08-08T05:16:50.826Z,66.00
2022-08-08T05:17:37.318Z,65.83
2022-08-08T05:18:56.739Z,65.93
2022-08-08T05:20:12.464Z,65.71
2022-08-08T05:21:19.302Z,65.61
2022-08-08T05:22:25.120Z,65.88
2022-08-08T05:23:30.646Z,65.50
2022-08-08T05:24:48.939Z,65.10
2022-08-08T05:26:00.339Z,65.23
2022-08-08T05:27:06.347Z,65.08
2022-08-08T05:28:13.007Z,64.90
2022-08-08T05:29:19.296Z,64.72
2022-08-08T05:30:27.913Z,64.68
2022-08-08T05:32:03.392Z,64.60
2022-08-08T05:32:58.368Z,64.59
2022-08-08T05:34:10.207Z,64.14
2022-08-08T05:35:16.864Z,64.18
2022-08-08T05:36:24.982Z,64.30
2022-08-08T05:37:49.090Z,63.97
2022-08-08T05:38:59.081Z,64.19
2022-08-08T05:40:05.618Z,63.97
2022-08-08T05:41:11.770Z,64.11
2022-08-08T05:42:19.287Z,63.93
2022-08-08T05:44:02.301Z,63.92
2022-08-08T05:44:52.948Z,63.61
2022-08-08T05:46:03.197Z,63.72
2022-08-08T05:47:14.141Z,63.15
2022-08-08T05:48:28.909Z,63.26
2022-08-08T05:49:37.977Z,63.33
2022-08-08T05:50:42.544Z,63.16
2022-08-08T05:51:51.002Z,63.11
2022-08-08T05:53:54.220Z,62.81
2022-08-08T05:54:42.977Z,63.54
2022-08-08T05:56:11.354Z,63.62
2022-08-08T05:57:57.438Z,63.70
2022-08-08T05:58:56.779Z,63.52
2022-08-08T06:00:25.054Z,64.02
2022-08-08T06:01:55.534Z,63.69
2022-08-08T06:03:13.077Z,63.84
2022-08-08T06:04:27.605Z,63.41
2022-08-08T06:05:36.657Z,62.79
2022-08-08T06:06:48.130Z,62.75
2022-08-08T06:08:02.733Z,62.12
2022-08-08T06:09:59.177Z,61.73
2022-08-08T06:10:42.709Z,61.27
2022-08-08T06:11:49.346Z,61.09
2022-08-08T06:12:52.432Z,60.88
2022-08-08T06:13:58.149Z,60.52
2022-08-08T06:15:06.093Z,60.31
2022-08-08T06:16:14.042Z,59.94
2022-08-08T06:17:51.113Z,59.99
2022-08-08T06:19:03.882Z,59.27
2022-08-08T06:20:13.609Z,59.08
2022-08-08T06:21:32.275Z,59.01
2022-08-08T06:22:46.115Z,59.23
2022-08-08T06:24:03.455Z,58.74
2022-08-08T06:25:14.074Z,58.72
2022-08-08T06:26:43.012Z,58.29
2022-08-08T06:27:48.879Z,57.04
2022-08-08T06:28:58.351Z,57.19
2022-08-08T06:30:11.789Z,56.49
2022-08-08T06:31:32.253Z,56.84
2022-08-08T06:32:52.946Z,57.05
2022-08-08T06:34:27.519Z,56.04
2022-08-08T06:36:08.091Z,54.96
2022-08-08T06:36:57.469Z,55.03
2022-08-08T06:38:09.207Z,54.35
2022-08-08T06:39:22.360Z,53.95
2022-08-08T06:40:30.105Z,53.69
2022-08-08T06:41:43.526Z,53.50
2022-08-08T06:42:57.087Z,53.45
2022-08-08T06:44:12.305Z,53.43
2022-08-08T06:45:34.146Z,53.36
2022-08-08T06:46:38.714Z,52.79
2022-08-08T06:47:52.593Z,52.76
2022-08-08T06:49:06.260Z,52.70
2022-08-08T06:50:17.409Z,52.99
2022-08-08T06:51:23.324Z,52.91
2022-08-08T06:52:29.107Z,52.48
2022-08-08T06:53:39.705Z,52.24
2022-08-08T06:54:58.790Z,52.24
2022-08-08T06:56:04.441Z,51.22
2022-08-08T06:57:12.487Z,50.93
2022-08-08T06:58:19.195Z,51.20
2022-08-08T06:59:27.131Z,50.89
2022-08-08T07:00:40.965Z,50.66
2022-08-08T07:02:16.922Z,50.37
2022-08-08T07:03:19.425Z,50.66
2022-08-08T07:04:36.371Z,49.84
2022-08-08T07:06:02.191Z,49.98
2022-08-08T07:07:12.557Z,49.71
2022-08-08T07:08:27.699Z,49.32
2022-08-08T07:09:45.113Z,49.23
2022-08-08T07:11:01.531Z,49.79
2022-08-08T07:12:08.883Z,49.86
2022-08-08T07:13:17.606Z,49.05
2022-08-08T07:14:38.695Z,48.71
2022-08-08T07:16:06.276Z,48.93
2022-08-08T07:17:19.833Z,48.16
2022-08-08T07:18:36.278Z,47.49
2022-08-08T07:19:45.756Z,47.95
2022-08-08T07:20:55.898Z,46.90
2022-08-08T07:22:18.777Z,45.51
2022-08-08T07:24:02.071Z,47.20
2022-08-08T07:25:01.954Z,47.74
2022-08-08T07:26:06.486Z,47.26
2022-08-08T07:27:16.734Z,46.95
2022-08-08T07:28:31.688Z,46.66
2022-08-08T07:30:02.397Z,46.73
2022-08-08T07:31:10.183Z,46.76
2022-08-08T07:32:15.920Z,46.25
2022-08-08T07:33:24.987Z,45.58
2022-08-08T07:35:00.185Z,43.53
2022-08-08T07:36:10.889Z,44.58
2022-08-08T07:37:23.330Z,44.41
2022-08-08T07:38:28.636Z,44.32
2022-08-08T07:39:45.287Z,44.10
2022-08-08T07:40:51.637Z,43.89
2022-08-08T07:42:03.964Z,44.08
2022-08-08T07:43:13.554Z,43.71
2022-08-08T07:44:37.772Z,43.17
2022-08-08T07:46:05.865Z,43.57
2022-08-08T07:47:13.416Z,43.76
2022-08-08T07:48:20.858Z,42.82
2022-08-08T07:49:28.804Z,43.58
2022-08-08T07:50:32.922Z,43.10
2022-08-08T07:51:45.409Z,43.08
2022-08-08T07:53:02.177Z,43.45
2022-08-08T07:54:24.026Z,42.97
2022-08-08T07:55:36.404Z,42.93
2022-08-08T07:56:50.794Z,42.89
2022-08-08T07:58:05.471Z,42.39
2022-08-08T07:59:14.794Z,42.47
2022-08-08T08:00:23.967Z,42.78
2022-08-08T08:02:33.285Z,42.28
2022-08-08T08:03:23.459Z,42.19
2022-08-08T08:04:40.046Z,42.08
2022-08-08T08:05:50.648Z,41.78
2022-08-08T08:07:00.965Z,41.31
2022-08-08T08:08:06.778Z,40.36
2022-08-08T08:09:19.669Z,39.71
2022-08-08T08:10:33.186Z,40.90
2022-08-08T08:11:51.560Z,40.29
2022-08-08T08:13:25.679Z,39.52
2022-08-08T08:14:56.270Z,40.49
2022-08-08T08:16:03.441Z,40.64
2022-08-08T08:17:13.926Z,41.09
2022-08-08T08:18:31.721Z,40.48
2022-08-08T08:19:45.648Z,39.30
2022-08-08T08:20:53.906Z,40.19
2022-08-08T08:22:07.795Z,40.35
2022-08-08T08:23:16.285Z,40.09
2022-08-08T08:24:30.429Z,39.71
2022-08-08T08:25:42.731Z,40.03
2022-08-08T08:26:54.648Z,40.07
2022-08-08T08:28:02.971Z,38.98
2022-08-08T08:29:07.207Z,38.76
2022-08-08T08:30:21.232Z,39.52
2022-08-08T08:31:41.534Z,39.39
2022-08-08T08:32:51.562Z,39.47
2022-08-08T08:33:58.941Z,39.17
2022-08-08T08:35:03.517Z,39.02
2022-08-08T08:36:19.271Z,38.49
2022-08-08T08:37:30.466Z,39.14
2022-08-08T08:38:36.099Z,38.77
2022-08-08T08:40:02.063Z,38.38
2022-08-08T08:41:17.820Z,38.55
2022-08-08T08:42:31.270Z,38.23
2022-08-08T08:43:42.634Z,38.25
2022-08-08T08:44:52.499Z,37.56
2022-08-08T08:45:57.337Z,37.00
2022-08-08T08:47:06.589Z,37.24
2022-08-08T08:48:19.007Z,37.64
2022-08-08T08:49:29.558Z,37.54
2022-08-08T08:50:40.857Z,37.49
2022-08-08T08:51:51.568Z,37.41
2022-08-08T08:52:59.946Z,37.71
2022-08-08T08:54:10.098Z,37.63
2022-08-08T08:55:16.070Z,37.73
2022-08-08T08:56:24.084Z,37.69
2022-08-08T08:57:34.620Z,38.40
2022-08-08T08:58:43.051Z,38.42
2022-08-08T08:59:58.770Z,37.95
2022-08-08T09:01:09.637Z,37.79
2022-08-08T09:02:21.801Z,37.67
2022-08-08T09:03:31.504Z,37.70
2022-08-08T09:04:50.718Z,37.08
2022-08-08T09:05:57.506Z,36.96
2022-08-08T09:07:12.920Z,36.86
2022-08-08T09:08:22.130Z,36.84
2022-08-08T09:09:39.489Z,36.42
2022-08-08T09:10:57.313Z,36.26
2022-08-08T09:12:08.046Z,35.22
2022-08-08T09:13:15.641Z,35.08
2022-08-08T09:14:23.246Z,35.46
2022-08-08T09:15:40.905Z,34.94
2022-08-08T09:16:47.769Z,35.45
2022-08-08T09:17:55.854Z,35.78
2022-08-08T09:19:05.508Z,35.59
2022-08-08T09:21:58.982Z,36.12
2022-08-08T09:22:05.465Z,35.37
2022-08-08T09:23:03.217Z,35.59
2022-08-08T09:24:08.154Z,35.90
2022-08-08T09:25:19.029Z,35.45
2022-08-08T09:26:39.581Z,35.46
2022-08-08T09:28:05.310Z,35.61
2022-08-08T09:29:28.216Z,35.33
2022-08-08T09:30:55.681Z,35.40
2022-08-08T09:32:19.421Z,35.54
2022-08-08T09:34:14.876Z,36.21
2022-08-08T09:35:37.369Z,36.58
2022-08-08T09:37:34.141Z,36.74
2022-08-08T09:38:54.686Z,36.56
2022-08-08T09:40:21.307Z,37.00
2022-08-08T09:42:14.749Z,36.84
2022-08-08T09:43:40.608Z,36.85
2022-08-08T09:45:15.692Z,36.64
2022-08-08T09:46:45.116Z,36.33
2022-08-08T09:48:26.060Z,36.08
2022-08-08T09:49:51.742Z,36.95
2022-08-08T09:51:17.483Z,36.96
2022-08-08T09:53:00.370Z,36.86
2022-08-08T09:54:37.125Z,36.97
2022-08-08T09:56:06.476Z,37.19
2022-08-08T09:57:37.907Z,37.41
2022-08-08T09:59:42.786Z,37.56
2022-08-08T10:00:59.127Z,37.49
2022-08-08T10:02:25.096Z,37.24
2022-08-08T10:03:56.259Z,37.15
2022-08-08T10:05:23.136Z,37.44
2022-08-08T10:06:45.364Z,37.54
2022-08-08T10:08:12.628Z,37.41
2022-08-08T10:10:00.091Z,37.07
2022-08-08T10:12:23.007Z,37.46
2022-08-08T10:13:14.231Z,38.16
2022-08-08T10:14:38.670Z,37.37
2022-08-08T10:16:00.748Z,36.92
2022-08-08T10:17:56.834Z,36.78
2022-08-08T10:19:05.759Z,36.47
2022-08-08T10:20:44.567Z,35.98
2022-08-08T10:22:10.348Z,36.97
2022-08-08T10:23:46.059Z,36.40
2022-08-08T10:25:20.557Z,36.35
2022-08-08T10:26:59.493Z,36.54
2022-08-08T10:28:25.722Z,36.00
2022-08-08T10:29:58.668Z,35.75
2022-08-08T10:31:47.335Z,36.37
2022-08-08T10:33:12.242Z,36.41
2022-08-08T10:34:29.232Z,36.19
2022-08-08T10:36:08.539Z,36.09
2022-08-08T10:37:39.636Z,36.44
2022-08-08T10:39:07.908Z,36.88
2022-08-08T10:40:24.070Z,36.88
2022-08-08T10:42:13.018Z,36.57
2022-08-08T10:43:40.317Z,36.67
2022-08-08T10:45:02.980Z,37.56
2022-08-08T10:46:32.557Z,37.27
2022-08-08T10:47:56.946Z,37.32
2022-08-08T10:49:26.949Z,37.08
2022-08-08T10:51:13.383Z,37.10
2022-08-08T10:52:34.194Z,37.89
2022-08-08T10:54:02.118Z,38.17
2022-08-08T10:55:39.658Z,38.42
2022-08-08T10:56:58.575Z,38.17
2022-08-08T10:58:30.107Z,37.72
2022-08-08T10:59:54.046Z,37.67
2022-08-08T11:01:20.537Z,37.71
2022-08-08T11:02:42.806Z,37.83
2022-08-08T11:04:10.527Z,37.87
2022-08-08T11:05:38.304Z,38.04
2022-08-08T11:07:02.666Z,37.82
2022-08-08T11:08:37.936Z,37.88
2022-08-08T11:10:10.358Z,37.67
2022-08-08T11:12:05.287Z,37.28
2022-08-08T11:13:31.753Z,37.04
2022-08-08T11:14:52.960Z,37.06
2022-08-08T11:16:33.178Z,36.38
2022-08-08T11:18:01.117Z,36.86
2022-08-08T11:19:24.407Z,36.67
2022-08-08T11:20:52.432Z,35.82
2022-08-08T11:22:09.767Z,35.77
2022-08-08T11:23:35.204Z,36.00
2022-08-08T11:24:52.595Z,35.74
2022-08-08T11:26:19.385Z,35.29
2022-08-08T11:27:38.664Z,35.17
2022-08-08T11:29:07.666Z,35.15
2022-08-08T11:30:31.800Z,34.88
2022-08-08T11:31:50.433Z,34.45
2022-08-08T11:33:12.888Z,33.74
2022-08-08T11:34:41.867Z,33.61
2022-08-08T11:36:14.415Z,34.45
2022-08-08T11:38:36.329Z,34.48
2022-08-08T11:39:19.997Z,34.34
2022-08-08T11:40:42.957Z,34.47
2022-08-08T11:41:52.685Z,33.94
2022-08-08T11:43:13.167Z,33.88
2022-08-08T11:44:33.638Z,33.88
2022-08-08T11:46:10.028Z,34.88
2022-08-08T11:47:39.714Z,34.94
2022-08-08T11:49:14.224Z,34.98
2022-08-08T11:50:33.705Z,34.27
2022-08-08T11:51:50.395Z,34.16
2022-08-08T11:53:12.583Z,34.08
2022-08-08T11:54:34.410Z,34.44
2022-08-08T11:55:53.416Z,33.85
2022-08-08T11:57:16.946Z,34.12
2022-08-08T11:58:35.661Z,33.97
2022-08-08T12:00:02.024Z,34.02
2022-08-08T12:01:35.469Z,34.52
2022-08-08T12:02:54.985Z,33.76
2022-08-08T12:04:12.626Z,33.67
2022-08-08T12:05:36.204Z,32.91
2022-08-08T12:07:05.113Z,32.37
2022-08-08T12:08:39.297Z,32.68
2022-08-08T12:09:59.684Z,33.11
2022-08-08T12:11:27.061Z,32.03
2022-08-08T12:12:51.905Z,31.97
2022-08-08T12:14:12.629Z,31.49
2022-08-08T12:15:41.872Z,31.55
2022-08-08T12:17:03.453Z,32.00
2022-08-08T12:18:24.510Z,31.67
2022-08-08T12:19:51.165Z,31.75
2022-08-08T12:21:25.774Z,31.34
2022-08-08T12:23:02.756Z,32.39
2022-08-08T12:24:28.206Z,32.92
2022-08-08T12:25:52.772Z,32.97
2022-08-08T12:27:19.116Z,32.29
2022-08-08T12:28:39.791Z,33.29
2022-08-08T12:29:57.777Z,32.69
2022-08-08T12:31:06.484Z,33.43
2022-08-08T12:32:13.328Z,33.39
2022-08-08T12:33:24.065Z,33.59
2022-08-08T12:34:44.906Z,33.75
2022-08-08T12:35:52.681Z,34.12
2022-08-08T12:37:05.564Z,33.75
2022-08-08T12:38:18.031Z,33.50
2022-08-08T12:39:56.484Z,33.23
2022-08-08T12:41:10.540Z,34.06
2022-08-08T12:42:33.587Z,34.02
2022-08-08T12:43:43.793Z,34.14
2022-08-08T12:45:53.755Z,34.25
2022-08-08T12:46:30.412Z,33.90
2022-08-08T12:47:58.814Z,34.03
2022-08-08T12:50:25.913Z,33.79
2022-08-08T12:51:41.196Z,32.98
2022-08-08T12:52:54.676Z,33.79
2022-08-08T12:54:01.965Z,33.94
2022-08-08T12:55:29.113Z,33.92
2022-08-08T12:56:40.025Z,34.15
2022-08-08T12:58:15.460Z,33.10
2022-08-08T12:59:36.191Z,33.57
2022-08-08T13:00:51.638Z,33.41
2022-08-08T13:01:57.726Z,33.52
2022-08-08T13:03:04.947Z,33.48
2022-08-08T13:04:18.614Z,33.24
2022-08-08T13:06:05.656Z,33.12
2022-08-08T13:07:16.652Z,33.16
2022-08-08T13:08:22.258Z,33.77
2022-08-08T13:09:57.805Z,33.48
2022-08-08T13:11:04.572Z,33.90
2022-08-08T13:12:24.806Z,33.41
2022-08-08T13:13:37.604Z,33.56
2022-08-08T13:14:52.827Z,33.39
2022-08-08T13:16:18.509Z,32.96
2022-08-08T13:18:09.367Z,33.74
2022-08-08T13:18:56.898Z,33.79
2022-08-08T13:20:08.601Z,33.99
2022-08-08T13:21:14.177Z,34.07
2022-08-08T13:22:24.509Z,33.97
2022-08-08T13:23:36.064Z,34.22
2022-08-08T13:24:48.964Z,34.17
2022-08-08T13:25:59.363Z,34.10
2022-08-08T13:27:11.864Z,33.67
2022-08-08T13:28:17.477Z,33.33
2022-08-08T13:29:22.093Z,33.84
2022-08-08T13:30:28.098Z,33.98
2022-08-08T13:31:32.816Z,34.15
2022-08-08T13:32:39.592Z,34.63
2022-08-08T13:33:50.164Z,34.37
2022-08-08T13:34:56.097Z,34.44
2022-08-08T13:35:59.344Z,34.23
2022-08-08T13:37:03.906Z,33.85
2022-08-08T13:38:15.549Z,33.95
2022-08-08T13:39:21.433Z,33.92
2022-08-08T13:40:27.338Z,34.05
2022-08-08T13:41:39.277Z,33.78
2022-08-08T13:42:49.074Z,33.69
2022-08-08T13:43:54.030Z,32.89
2022-08-08T13:45:04.562Z,32.69
2022-08-08T13:46:28.414Z,32.02
2022-08-08T13:47:34.576Z,32.88
2022-08-08T13:48:48.235Z,32.27
2022-08-08T13:50:34.872Z,32.34
2022-08-08T13:51:37.959Z,32.63
2022-08-08T13:52:48.623Z,31.98
2022-08-08T13:54:00.045Z,32.06
2022-08-08T13:55:08.211Z,32.39
2022-08-08T13:56:12.387Z,32.81
2022-08-08T13:57:18.067Z,32.42
2022-08-08T13:58:56.270Z,32.34
2022-08-08T14:00:09.398Z,32.37
2022-08-08T14:01:23.359Z,32.63
2022-08-08T14:02:44.785Z,32.39
2022-08-08T14:03:55.101Z,32.48
2022-08-08T14:05:09.130Z,32.13
2022-08-08T14:06:33.206Z,32.48
2022-08-08T14:07:42.242Z,33.21
2022-08-08T14:08:46.824Z,32.64
2022-08-08T14:10:05.345Z,32.44
2022-08-08T14:11:20.987Z,31.98
2022-08-08T14:12:27.921Z,31.51
2022-08-08T14:13:33.991Z,31.51
2022-08-08T14:14:40.159Z,31.18
2022-08-08T14:15:50.101Z,31.46
2022-08-08T14:16:55.429Z,31.13
2022-08-08T14:18:34.539Z,30.91
2022-08-08T14:19:56.973Z,31.17
2022-08-08T14:21:04.075Z,31.60
2022-08-08T14:22:18.396Z,31.61
2022-08-08T14:24:08.134Z,31.89
2022-08-08T14:24:52.470Z,31.23
2022-08-08T14:26:00.673Z,31.59
2022-08-08T14:27:27.285Z,31.20
2022-08-08T14:28:32.025Z,32.02
2022-08-08T14:29:54.777Z,31.81
2022-08-08T14:31:09.705Z,31.92
2022-08-08T14:32:30.010Z,32.46
2022-08-08T14:33:36.452Z,33.04
2022-08-08T14:34:42.056Z,32.54
2022-08-08T14:35:49.572Z,32.56
2022-08-08T14:36:56.706Z,32.53
2022-08-08T14:38:08.739Z,31.99
2022-08-08T14:39:19.324Z,32.10
2022-08-08T14:40:24.812Z,32.44
2022-08-08T14:41:53.095Z,32.47
2022-08-08T14:42:57.042Z,32.26
2022-08-08T14:44:11.177Z,32.63
2022-08-08T14:45:18.327Z,33.03
2022-08-08T14:46:37.321Z,33.17
2022-08-08T14:47:51.446Z,33.24
2022-08-08T14:48:59.066Z,33.67
2022-08-08T14:50:16.243Z,33.86
2022-08-08T14:51:30.945Z,34.11
2022-08-08T14:52:57.604Z,32.97
2022-08-08T14:54:03.477Z,32.89
2022-08-08T14:55:10.116Z,32.69
2022-08-08T14:56:15.447Z,32.80
2022-08-08T14:57:20.661Z,32.37
2022-08-08T14:58:43.940Z,32.37
2022-08-08T14:59:50.942Z,32.37
2022-08-08T15:00:58.325Z,32.06
2022-08-08T15:02:01.602Z,32.20
2022-08-08T15:03:15.999Z,31.34
2022-08-08T15:04:21.213Z,31.70
2022-08-08T15:05:34.169Z,32.12
2022-08-08T15:06:47.667Z,31.57
2022-08-08T15:08:00.794Z,31.77
2022-08-08T15:09:06.195Z,31.59
2022-08-08T15:10:12.706Z,31.27
2022-08-08T15:11:19.070Z,31.25
2022-08-08T15:12:27.583Z,31.34
2022-08-08T15:13:39.886Z,30.82
2022-08-08T15:14:44.614Z,30.80
2022-08-08T15:16:02.854Z,30.45
2022-08-08T15:17:08.378Z,30.35
2022-08-08T15:18:14.336Z,30.41
2022-08-08T15:19:23.733Z,30.69
2022-08-08T15:20:31.997Z,30.63
2022-08-08T15:21:42.438Z,31.12
2022-08-08T15:22:47.035Z,31.73
2022-08-08T15:23:51.099Z,31.90
2022-08-08T15:24:56.054Z,32.18
2022-08-08T15:26:00.698Z,32.55
2022-08-08T15:27:20.171Z,32.50
2022-08-08T15:28:34.348Z,32.54
2022-08-08T15:29:38.158Z,32.53
2022-08-08T15:30:42.525Z,32.71
2022-08-08T15:32:02.759Z,32.78
2022-08-08T15:33:10.198Z,33.19
2022-08-08T15:34:31.365Z,33.12
2022-08-08T15:35:39.221Z,33.70
2022-08-08T15:36:42.859Z,33.76
2022-08-08T15:37:47.632Z,34.15
2022-08-08T15:38:53.105Z,34.25
2022-08-08T15:39:57.487Z,34.84
2022-08-08T15:41:03.266Z,34.76
2022-08-08T15:42:13.066Z,35.38
2022-08-08T15:43:36.445Z,35.37
2022-08-08T15:44:42.252Z,35.94
2022-08-08T15:45:48.846Z,35.76
2022-08-08T15:46:51.994Z,36.49
2022-08-08T15:47:57.514Z,36.77
2022-08-08T15:49:21.215Z,36.93
2022-08-08T15:50:49.027Z,36.94
2022-08-08T15:51:54.993Z,37.52
2022-08-08T15:52:59.630Z,37.37
2022-08-08T15:54:04.426Z,37.71
2022-08-08T15:55:19.467Z,37.81
2022-08-08T15:56:23.767Z,37.48
2022-08-08T15:57:27.925Z,37.68
2022-08-08T15:58:39.298Z,37.87
2022-08-08T16:00:25.611Z,37.71
2022-08-08T16:01:18.362Z,37.60
2022-08-08T16:02:30.411Z,37.42
2022-08-08T16:03:36.527Z,37.53
2022-08-08T16:04:40.617Z,37.71
2022-08-08T16:06:00.972Z,37.69
2022-08-08T16:07:06.825Z,37.65
2022-08-08T16:08:12.772Z,37.66
2022-08-08T16:13:10.007Z,38.23
2022-08-08T16:13:14.105Z,38.16
2022-08-08T16:13:28.723Z,37.88
2022-08-08T16:13:46.168Z,38.15
2022-08-08T16:14:53.649Z,38.27
2022-08-08T16:16:16.582Z,37.79
2022-08-08T16:17:38.860Z,37.70
2022-08-08T16:18:56.432Z,37.74
2022-08-08T16:20:02.472Z,37.71
2022-08-08T16:21:25.895Z,37.52
2022-08-08T16:22:31.171Z,38.01
2022-08-08T16:23:34.357Z,37.61
2022-08-08T16:24:38.866Z,37.92
2022-08-08T16:26:13.163Z,38.00
2022-08-08T16:27:24.105Z,37.99
2022-08-08T16:28:35.511Z,38.04
2022-08-08T16:30:12.883Z,38.56
2022-08-08T16:31:08.170Z,38.46
2022-08-08T16:32:21.896Z,38.36
2022-08-08T16:33:37.998Z,38.26
2022-08-08T16:34:43.228Z,38.66
2022-08-08T16:35:47.020Z,38.81
2022-08-08T16:36:56.145Z,38.99
2022-08-08T16:37:59.782Z,38.85
2022-08-08T16:39:16.897Z,39.23
2022-08-08T16:40:30.194Z,39.08
2022-08-08T16:41:34.856Z,39.13
2022-08-08T16:42:38.822Z,39.31
2022-08-08T16:43:50.665Z,39.39
2022-08-08T16:44:59.642Z,39.30
2022-08-08T16:46:38.900Z,39.55
2022-08-08T16:47:40.367Z,39.60
2022-08-08T16:48:47.005Z,39.64
2022-08-08T16:49:50.614Z,39.72
2022-08-08T16:50:56.715Z,39.83
2022-08-08T16:55:00.275Z,40.11
2022-08-08T16:55:04.275Z,40.07